createdAt,value
2022-10-19T00:02:14.461Z,5.1
2022-10-19T00:07:57.806Z,5.4
2022-10-19T00:13:41.014Z,5.4
2022-10-19T00:19:25.393Z,5.6
2022-10-19T00:25:09.163Z,5.5
2022-10-19T00:30:52.403Z,5.5
2022-10-19T00:36:36.503Z,5.9
2022-10-19T00:42:19.662Z,5.4
2022-10-19T00:48:03.099Z,5.5
2022-10-19T00:53:46.238Z,5.7
2022-10-19T00:59:29.434Z,5.7
2022-10-19T01:05:13.004Z,5.8
2022-10-19T01:11:05.836Z,5.5
2022-10-19T01:16:54.889Z,5.8
2022-10-19T01:22:44.511Z,6.1
2022-10-19T01:28:39.058Z,5.6
2022-10-19T01:34:26.666Z,5.9
2022-10-19T01:40:15.286Z,6.1
2022-10-19T01:46:02.470Z,5.7
2022-10-19T01:51:49.994Z,6
2022-10-19T01:57:34.685Z,5.4
2022-10-19T02:03:28.847Z,6
2022-10-19T02:09:12.549Z,5.9
2022-10-19T02:15:00.062Z,6
2022-10-19T02:20:47.049Z,5.9
2022-10-19T02:26:33.590Z,6.4
2022-10-19T02:32:20.102Z,6.1
2022-10-19T02:38:08.910Z,6.2
2022-10-19T02:43:58.211Z,5.9
2022-10-19T02:49:45.195Z,6
2022-10-19T02:55:29.535Z,5.8
2022-10-19T03:01:16.340Z,6.2
2022-10-19T03:06:59.874Z,5.7
2022-10-19T03:12:43.208Z,5.8
2022-10-19T03:18:27.620Z,5.9
2022-10-19T03:24:11.454Z,6.5
2022-10-19T03:30:02.607Z,6.2
2022-10-19T03:35:49.373Z,6.8
2022-10-19T03:41:34.923Z,6.1
2022-10-19T03:47:22.981Z,6
2022-10-19T03:53:06.519Z,6.2
2022-10-19T03:58:52.107Z,5.9
2022-10-19T04:04:36.207Z,6.6
2022-10-19T04:10:20.997Z,6.3
2022-10-19T04:16:16.562Z,6.2
2022-10-19T04:22:00.872Z,6.2
2022-10-19T04:27:44.228Z,6
2022-10-19T04:33:27.594Z,6.6
2022-10-19T04:39:10.853Z,6.2
2022-10-19T04:45:00.829Z,5.6
2022-10-19T04:50:44.638Z,5.9
2022-10-19T04:56:29.176Z,5.8
2022-10-19T05:02:16.886Z,6.4
2022-10-19T05:08:00.822Z,6.2
2022-10-19T05:13:44.553Z,6.1
2022-10-19T05:19:30.724Z,6.4
2022-10-19T05:25:16.826Z,6
2022-10-19T05:31:05.308Z,5.9
2022-10-19T05:36:50.815Z,6.1
2022-10-19T05:42:34.803Z,5.8
2022-10-19T05:48:18.107Z,5.7
2022-10-19T05:54:03.996Z,6.8
2022-10-19T05:59:51.575Z,6.5
2022-10-19T06:05:37.377Z,6.8
2022-10-19T06:11:25.112Z,6.2
2022-10-19T06:17:22.370Z,5.5
2022-10-19T06:23:18.823Z,6.4
2022-10-19T06:29:02.637Z,5.7
2022-10-19T06:34:46.725Z,5.6
2022-10-19T06:40:32.618Z,6.5
2022-10-19T06:46:17.791Z,6.4
2022-10-19T06:52:04.298Z,5.9
2022-10-19T06:57:51.816Z,6.1
2022-10-19T07:03:36.229Z,5.8
2022-10-19T07:09:20.359Z,6.4
2022-10-19T07:15:16.087Z,5.9
2022-10-19T07:21:01.947Z,5.9
2022-10-19T07:26:45.452Z,5.7
2022-10-19T07:32:34.586Z,5.6
2022-10-19T07:38:20.982Z,6.2
2022-10-19T07:44:09.992Z,5.7
2022-10-19T07:50:00.660Z,5.8
2022-10-19T07:55:47.291Z,6.1
2022-10-19T08:01:33.995Z,6.7
2022-10-19T08:07:18.163Z,6.1
2022-10-19T08:13:01.578Z,6.5
2022-10-19T08:18:44.882Z,6.4
2022-10-19T08:24:30.443Z,6.5
2022-10-19T08:30:14.328Z,6.6
2022-10-19T08:35:57.706Z,6.7
2022-10-19T08:41:46.013Z,6.8
2022-10-19T08:47:39.062Z,6.9
2022-10-19T08:53:25.870Z,6.6
2022-10-19T08:59:15.852Z,6.7
2022-10-19T09:05:02.311Z,7
2022-10-19T09:10:47.485Z,6.7
2022-10-19T09:16:31.249Z,6.9
2022-10-19T09:22:29.254Z,7.3
2022-10-19T09:28:33.879Z,7.1
2022-10-19T09:34:31.857Z,7.3
2022-10-19T09:40:29.476Z,6.9
2022-10-19T09:46:25.494Z,7
2022-10-19T09:52:34.279Z,7.1
2022-10-19T09:58:34.791Z,6.9
2022-10-19T10:04:22.758Z,7
2022-10-19T10:10:31.714Z,6.6
2022-10-19T10:16:30.905Z,7.3
2022-10-19T10:22:21.948Z,6.5
2022-10-19T10:28:11.129Z,7
2022-10-19T10:34:16.195Z,6.4
2022-10-19T10:40:06.374Z,6.4
2022-10-19T10:45:50.982Z,6.2
2022-10-19T10:51:39.244Z,6.2
2022-10-19T10:57:24.321Z,6.3
2022-10-19T11:03:10.228Z,5.6
2022-10-19T11:08:58.106Z,5.6
2022-10-19T11:14:46.082Z,5.6
2022-10-19T11:20:30.805Z,5.7
2022-10-19T11:26:20.314Z,5.9
2022-10-19T11:32:11.426Z,5.7
2022-10-19T11:38:19.382Z,5.9
2022-10-19T11:44:13.555Z,5.7
2022-10-19T11:50:03.295Z,5.8
2022-10-19T11:55:51.695Z,6.1
2022-10-19T12:01:41.748Z,6.2
2022-10-19T12:07:34.658Z,6.4
2022-10-19T12:13:21.701Z,6.5
2022-10-19T12:19:06.104Z,5.8
2022-10-19T12:24:50.666Z,5.8
2022-10-19T12:30:33.890Z,5.8
2022-10-19T12:36:23.727Z,10.7
2022-10-19T12:42:14.008Z,22.1
2022-10-19T12:48:09.472Z,31.4
2022-10-19T12:53:53.487Z,36.5
2022-10-19T12:59:38.253Z,38.1
2022-10-19T13:05:27.020Z,38.6
2022-10-19T13:11:13.246Z,38.2
2022-10-19T13:17:01.667Z,36.8
2022-10-19T13:22:47.567Z,35.6
2022-10-19T13:28:49.287Z,32.9
2022-10-19T13:34:32.807Z,32.4
2022-10-19T13:40:26.610Z,31.2
2022-10-19T13:46:17.674Z,30.5
2022-10-19T13:52:06.766Z,29.5
2022-10-19T13:58:02.805Z,28.4
2022-10-19T14:03:55.585Z,26.9
2022-10-19T14:09:46.462Z,24.7
2022-10-19T14:15:30.835Z,23.2
2022-10-19T14:21:14.338Z,22.6
2022-10-19T14:26:57.850Z,23.9
2022-10-19T14:32:42.057Z,21.5
2022-10-19T14:38:27.187Z,21.4
2022-10-19T14:44:24.923Z,20.7
2022-10-19T14:50:12.857Z,20.2
2022-10-19T14:55:57.274Z,19.6
2022-10-19T15:01:42.190Z,19.4
2022-10-19T15:07:26.886Z,19.6
2022-10-19T15:13:17.945Z,19.6
2022-10-19T15:19:03.659Z,19
2022-10-19T15:24:52.142Z,16.1
2022-10-19T15:30:35.632Z,15.7
2022-10-19T15:36:19.023Z,13.6
2022-10-19T15:42:14.105Z,13
2022-10-19T15:48:03.297Z,11.9
2022-10-19T15:53:46.643Z,11.4
2022-10-19T15:59:29.638Z,11.2
2022-10-19T16:05:13.511Z,10.5
2022-10-19T16:10:56.925Z,10.1
2022-10-19T16:16:40.274Z,10.4
2022-10-19T16:22:23.586Z,9.8
2022-10-19T16:28:06.890Z,9.1
2022-10-19T16:33:50.207Z,10
2022-10-19T16:39:33.580Z,9.6
2022-10-19T16:45:17.563Z,9.3
2022-10-19T16:51:22.159Z,10
2022-10-19T16:57:11.123Z,9.4
2022-10-19T17:02:54.603Z,9.2
2022-10-19T17:14:42.286Z,8.8
2022-10-19T17:20:25.630Z,9
2022-10-19T17:26:09.672Z,8.5
2022-10-19T17:31:56.450Z,8.4
2022-10-19T17:37:40.614Z,8.5
2022-10-19T17:43:24.139Z,8.1
2022-10-19T17:49:07.530Z,7.9
2022-10-19T17:55:11.510Z,8.3
2022-10-19T18:00:59.098Z,7.7
2022-10-19T18:06:51.187Z,8.2
2022-10-19T18:12:34.674Z,8.1
2022-10-19T18:18:17.999Z,7.8
2022-10-19T18:24:02.002Z,7.7
2022-10-19T18:29:45.409Z,7.1
2022-10-19T18:35:28.663Z,7.3
2022-10-19T18:46:57.174Z,7
2022-10-19T18:52:41.019Z,7.4
2022-10-19T18:58:24.613Z,7
2022-10-19T19:04:11.356Z,7
2022-10-19T19:09:56.854Z,7.1
2022-10-19T19:15:40.056Z,6.8
2022-10-19T19:21:24.370Z,6.8
2022-10-19T19:27:07.510Z,7.1
2022-10-19T19:32:50.819Z,7.2
2022-10-19T19:38:34.227Z,7.2
2022-10-19T19:44:17.580Z,7.6
2022-10-19T19:50:01.339Z,7
2022-10-19T19:55:47.699Z,7.5
2022-10-19T20:01:31.122Z,7.5
2022-10-19T20:07:14.732Z,6.7
2022-10-19T20:12:58.621Z,6.4
2022-10-19T20:18:42.197Z,6.5
2022-10-19T20:24:25.397Z,6.4
2022-10-19T20:30:09.363Z,6.5
2022-10-19T20:35:52.634Z,5.9
2022-10-19T20:41:35.918Z,6.3
2022-10-19T20:47:19.387Z,5.9
2022-10-19T20:53:02.641Z,5.6
2022-10-19T20:58:47.396Z,5.7
2022-10-19T21:04:30.930Z,5.6
2022-10-19T21:10:14.348Z,5.6
2022-10-19T21:15:58.500Z,5.3
2022-10-19T21:21:42.588Z,5.3
2022-10-19T21:27:25.725Z,5
2022-10-19T21:33:08.855Z,5.2
2022-10-19T21:38:52.210Z,5.4
2022-10-19T21:44:35.458Z,4.9
2022-10-19T21:50:19.979Z,5.2
2022-10-19T21:56:03.010Z,4.8
2022-10-19T22:01:46.346Z,4.7
2022-10-19T22:07:29.854Z,4.6
2022-10-19T22:13:13.501Z,4.3
2022-10-19T22:18:56.654Z,4.5
2022-10-19T22:24:40.122Z,5
2022-10-19T22:30:24.287Z,4.5
2022-10-19T22:36:09.119Z,4.4
2022-10-19T22:41:52.326Z,4.2
2022-10-19T22:47:35.603Z,4.5
2022-10-19T22:53:18.926Z,4.7
2022-10-19T22:59:06.268Z,4.6
2022-10-19T23:04:50.286Z,4
2022-10-19T23:10:34.284Z,4.5
2022-10-19T23:16:18.672Z,4
2022-10-19T23:22:02.572Z,4.3
2022-10-19T23:27:46.364Z,4.1
2022-10-19T23:33:30.332Z,4.4
2022-10-19T23:39:15.010Z,4.2
2022-10-19T23:44:58.623Z,3.9
2022-10-19T23:50:42.091Z,3.9
2022-10-19T23:56:26.102Z,3.8
